Terminal Aerodrome Forecast
Issued by NWS Memphis, TN

Current Version | Previous Version | Text Only | Print | Product List | Glossary On
Versions: 1 2 3 4 5 6 7 8 9 10 11 12 13 14 15 16
000
FTUS44 KMEG 290529
TAFJBR
TAF
KJBR 290529Z 2906/3006 21005KT P6SM SCT012
      TEMPO 2906/2910 VRB10KT 3SM TSRA BKN010CB
     FM291000 21005KT 6SM BR VCSH SCT008 OVC012
     FM291500 26008KT P6SM VCSH BKN020
     FM292000 25010KT P6SM VCTS BKN035CB BKN250
      TEMPO 2923/3003 VRB15G25KT 3SM TSRA SCT015 OVC035CB=

USA.gov is the U.S. government's official web portal to all federal, state and local government web resources and services.